sensor_id;sensor_type;location;lat;lon;timestamp;P1;durP1;ratioP1;P2;durP2;ratioP2
14358;SDS011;7263;49.418;11.064;2022-07-22T00:01:50;6.60;;;6.00;;
14358;SDS011;7263;49.418;11.064;2022-07-22T00:04:18;7.60;;;5.90;;
14358;SDS011;7263;49.418;11.064;2022-07-22T00:06:45;6.00;;;5.40;;
14358;SDS011;7263;49.418;11.064;2022-07-22T00:09:12;6.67;;;6.00;;
14358;SDS011;7263;49.418;11.064;2022-07-22T00:11:39;7.43;;;6.17;;
14358;SDS011;7263;49.418;11.064;2022-07-22T00:14:06;6.73;;;6.20;;
14358;SDS011;7263;49.418;11.064;2022-07-22T00:16:34;6.37;;;5.77;;
14358;SDS011;7263;49.418;11.064;2022-07-22T00:19:02;6.67;;;5.73;;
14358;SDS011;7263;49.418;11.064;2022-07-22T00:21:34;6.53;;;5.30;;
14358;SDS011;7263;49.418;11.064;2022-07-22T00:24:02;6.87;;;6.27;;
14358;SDS011;7263;49.418;11.064;2022-07-22T00:26:29;7.93;;;6.20;;
14358;SDS011;7263;49.418;11.064;2022-07-22T00:28:56;7.15;;;6.55;;
14358;SDS011;7263;49.418;11.064;2022-07-22T00:31:23;6.73;;;6.03;;
14358;SDS011;7263;49.418;11.064;2022-07-22T00:33:50;6.10;;;5.50;;
14358;SDS011;7263;49.418;11.064;2022-07-22T00:36:19;6.90;;;6.10;;
14358;SDS011;7263;49.418;11.064;2022-07-22T00:38:46;6.90;;;6.30;;
14358;SDS011;7263;49.418;11.064;2022-07-22T00:41:13;6.53;;;5.87;;
14358;SDS011;7263;49.418;11.064;2022-07-22T00:46:22;6.30;;;5.80;;
14358;SDS011;7263;49.418;11.064;2022-07-22T00:48:49;7.40;;;6.73;;
14358;SDS011;7263;49.418;11.064;2022-07-22T00:51:18;6.90;;;6.20;;
14358;SDS011;7263;49.418;11.064;2022-07-22T00:53:46;7.03;;;6.33;;
14358;SDS011;7263;49.418;11.064;2022-07-22T00:56:13;7.13;;;6.53;;
14358;SDS011;7263;49.418;11.064;2022-07-22T00:58:41;7.20;;;6.50;;
14358;SDS011;7263;49.418;11.064;2022-07-22T01:01:08;6.77;;;6.17;;
14358;SDS011;7263;49.418;11.064;2022-07-22T01:03:36;7.17;;;6.47;;
14358;SDS011;7263;49.418;11.064;2022-07-22T01:06:03;7.87;;;6.47;;
14358;SDS011;7263;49.418;11.064;2022-07-22T01:08:32;8.07;;;6.60;;
14358;SDS011;7263;49.418;11.064;2022-07-22T01:11:09;8.67;;;6.20;;
14358;SDS011;7263;49.418;11.064;2022-07-22T01:13:36;7.50;;;6.73;;
14358;SDS011;7263;49.418;11.064;2022-07-22T01:16:03;9.57;;;6.93;;
14358;SDS011;7263;49.418;11.064;2022-07-22T01:18:31;7.10;;;6.50;;
14358;SDS011;7263;49.418;11.064;2022-07-22T01:21:00;7.50;;;6.80;;
14358;SDS011;7263;49.418;11.064;2022-07-22T01:23:27;6.80;;;6.17;;
14358;SDS011;7263;49.418;11.064;2022-07-22T01:25:55;7.23;;;6.63;;
14358;SDS011;7263;49.418;11.064;2022-07-22T01:28:23;7.80;;;7.10;;
14358;SDS011;7263;49.418;11.064;2022-07-22T01:30:51;7.20;;;6.60;;
14358;SDS011;7263;49.418;11.064;2022-07-22T01:33:18;7.47;;;6.87;;
14358;SDS011;7263;49.418;11.064;2022-07-22T01:35:46;7.00;;;6.40;;
14358;SDS011;7263;49.418;11.064;2022-07-22T01:38:14;7.20;;;6.60;;
14358;SDS011;7263;49.418;11.064;2022-07-22T01:40:42;7.87;;;7.17;;
14358;SDS011;7263;49.418;11.064;2022-07-22T01:43:09;7.30;;;6.70;;
14358;SDS011;7263;49.418;11.064;2022-07-22T01:45:38;7.47;;;6.87;;
14358;SDS011;7263;49.418;11.064;2022-07-22T01:48:05;8.03;;;7.33;;
14358;SDS011;7263;49.418;11.064;2022-07-22T01:50:32;7.57;;;6.87;;
14358;SDS011;7263;49.418;11.064;2022-07-22T01:52:59;7.37;;;6.60;;
14358;SDS011;7263;49.418;11.064;2022-07-22T01:55:28;7.33;;;6.70;;
14358;SDS011;7263;49.418;11.064;2022-07-22T01:57:55;7.40;;;6.80;;
14358;SDS011;7263;49.418;11.064;2022-07-22T02:00:22;7.57;;;6.90;;
14358;SDS011;7263;49.418;11.064;2022-07-22T02:02:49;7.77;;;7.07;;
14358;SDS011;7263;49.418;11.064;2022-07-22T02:05:16;7.90;;;7.10;;
14358;SDS011;7263;49.418;11.064;2022-07-22T02:07:43;8.57;;;6.90;;
14358;SDS011;7263;49.418;11.064;2022-07-22T02:10:10;8.13;;;7.03;;
14358;SDS011;7263;49.418;11.064;2022-07-22T02:12:39;9.00;;;7.90;;
14358;SDS011;7263;49.418;11.064;2022-07-22T02:15:06;7.70;;;7.10;;
14358;SDS011;7263;49.418;11.064;2022-07-22T02:17:34;8.10;;;7.40;;
14358;SDS011;7263;49.418;11.064;2022-07-22T02:20:01;7.57;;;6.90;;
14358;SDS011;7263;49.418;11.064;2022-07-22T02:22:29;7.50;;;6.70;;
14358;SDS011;7263;49.418;11.064;2022-07-22T02:24:56;8.27;;;6.90;;
14358;SDS011;7263;49.418;11.064;2022-07-22T02:27:23;10.00;;;7.77;;
14358;SDS011;7263;49.418;11.064;2022-07-22T02:29:51;8.73;;;7.10;;
14358;SDS011;7263;49.418;11.064;2022-07-22T02:32:18;8.00;;;7.23;;
14358;SDS011;7263;49.418;11.064;2022-07-22T02:34:46;9.20;;;7.27;;
14358;SDS011;7263;49.418;11.064;2022-07-22T02:37:13;7.33;;;6.63;;
14358;SDS011;7263;49.418;11.064;2022-07-22T02:39:40;9.53;;;7.50;;
14358;SDS011;7263;49.418;11.064;2022-07-22T02:42:07;8.13;;;7.33;;
14358;SDS011;7263;49.418;11.064;2022-07-22T02:44:34;8.63;;;7.77;;
14358;SDS011;7263;49.418;11.064;2022-07-22T02:47:03;7.63;;;6.93;;
14358;SDS011;7263;49.418;11.064;2022-07-22T02:49:30;7.80;;;7.20;;
14358;SDS011;7263;49.418;11.064;2022-07-22T02:51:57;8.50;;;7.03;;
14358;SDS011;7263;49.418;11.064;2022-07-22T02:54:24;11.80;;;7.27;;
14358;SDS011;7263;49.418;11.064;2022-07-22T02:56:51;8.00;;;7.20;;
14358;SDS011;7263;49.418;11.064;2022-07-22T02:59:18;8.37;;;7.57;;
14358;SDS011;7263;49.418;11.064;2022-07-22T03:01:45;9.13;;;8.03;;
14358;SDS011;7263;49.418;11.064;2022-07-22T03:04:14;9.07;;;7.63;;
14358;SDS011;7263;49.418;11.064;2022-07-22T03:06:41;8.20;;;7.47;;
14358;SDS011;7263;49.418;11.064;2022-07-22T03:09:08;10.13;;;7.47;;
14358;SDS011;7263;49.418;11.064;2022-07-22T03:11:35;14.17;;;12.37;;
14358;SDS011;7263;49.418;11.064;2022-07-22T03:14:02;18.27;;;16.47;;
14358;SDS011;7263;49.418;11.064;2022-07-22T03:16:29;23.30;;;20.93;;
14358;SDS011;7263;49.418;11.064;2022-07-22T03:18:56;9.50;;;8.50;;
14358;SDS011;7263;49.418;11.064;2022-07-22T03:21:24;9.77;;;8.77;;
14358;SDS011;7263;49.418;11.064;2022-07-22T03:23:52;8.67;;;7.83;;
14358;SDS011;7263;49.418;11.064;2022-07-22T03:26:19;7.73;;;7.03;;
14358;SDS011;7263;49.418;11.064;2022-07-22T03:28:46;9.40;;;7.60;;
14358;SDS011;7263;49.418;11.064;2022-07-22T03:31:14;8.60;;;7.43;;
14358;SDS011;7263;49.418;11.064;2022-07-22T03:33:40;9.00;;;7.20;;
14358;SDS011;7263;49.418;11.064;2022-07-22T03:36:08;8.80;;;7.50;;
14358;SDS011;7263;49.418;11.064;2022-07-22T03:38:36;7.97;;;7.17;;
14358;SDS011;7263;49.418;11.064;2022-07-22T03:41:03;12.70;;;10.90;;
14358;SDS011;7263;49.418;11.064;2022-07-22T03:43:30;27.70;;;24.93;;
14358;SDS011;7263;49.418;11.064;2022-07-22T03:45:58;16.93;;;15.20;;
14358;SDS011;7263;49.418;11.064;2022-07-22T03:48:25;9.20;;;8.30;;
14358;SDS011;7263;49.418;11.064;2022-07-22T03:50:52;10.20;;;9.30;;
14358;SDS011;7263;49.418;11.064;2022-07-22T03:53:19;9.80;;;8.80;;
14358;SDS011;7263;49.418;11.064;2022-07-22T03:55:47;11.70;;;10.70;;
14358;SDS011;7263;49.418;11.064;2022-07-22T03:58:15;13.47;;;12.07;;
14358;SDS011;7263;49.418;11.064;2022-07-22T04:00:43;11.43;;;10.37;;
14358;SDS011;7263;49.418;11.064;2022-07-22T04:03:10;8.67;;;7.87;;
14358;SDS011;7263;49.418;11.064;2022-07-22T04:05:37;8.90;;;8.00;;
14358;SDS011;7263;49.418;11.064;2022-07-22T04:08:06;8.03;;;7.33;;
14358;SDS011;7263;49.418;11.064;2022-07-22T04:10:33;7.87;;;7.07;;
14358;SDS011;7263;49.418;11.064;2022-07-22T04:13:01;7.73;;;7.03;;
14358;SDS011;7263;49.418;11.064;2022-07-22T04:15:28;9.37;;;7.23;;
14358;SDS011;7263;49.418;11.064;2022-07-22T04:17:55;9.00;;;7.90;;
14358;SDS011;7263;49.418;11.064;2022-07-22T04:20:23;9.37;;;8.47;;
14358;SDS011;7263;49.418;11.064;2022-07-22T04:22:50;10.13;;;8.97;;
14358;SDS011;7263;49.418;11.064;2022-07-22T04:25:17;14.07;;;12.77;;
14358;SDS011;7263;49.418;11.064;2022-07-22T04:27:44;17.20;;;15.43;;
14358;SDS011;7263;49.418;11.064;2022-07-22T04:30:12;10.83;;;9.80;;
14358;SDS011;7263;49.418;11.064;2022-07-22T04:32:39;15.50;;;13.93;;
14358;SDS011;7263;49.418;11.064;2022-07-22T04:35:07;11.43;;;10.38;;
14358;SDS011;7263;49.418;11.064;2022-07-22T04:37:34;13.57;;;12.23;;
14358;SDS011;7263;49.418;11.064;2022-07-22T04:40:02;9.40;;;8.50;;
14358;SDS011;7263;49.418;11.064;2022-07-22T04:42:29;8.35;;;7.65;;
14358;SDS011;7263;49.418;11.064;2022-07-22T04:44:56;10.68;;;7.95;;
14358;SDS011;7263;49.418;11.064;2022-07-22T04:47:24;17.40;;;15.68;;
14358;SDS011;7263;49.418;11.064;2022-07-22T04:49:51;10.63;;;9.70;;
14358;SDS011;7263;49.418;11.064;2022-07-22T04:52:20;11.27;;;10.30;;
14358;SDS011;7263;49.418;11.064;2022-07-22T04:54:47;8.45;;;7.65;;
14358;SDS011;7263;49.418;11.064;2022-07-22T04:57:15;7.88;;;7.13;;
14358;SDS011;7263;49.418;11.064;2022-07-22T04:59:42;8.25;;;7.43;;
14358;SDS011;7263;49.418;11.064;2022-07-22T05:02:09;8.52;;;7.72;;
14358;SDS011;7263;49.418;11.064;2022-07-22T05:04:38;10.13;;;8.77;;
14358;SDS011;7263;49.418;11.064;2022-07-22T05:07:05;7.40;;;6.72;;
14358;SDS011;7263;49.418;11.064;2022-07-22T05:09:32;11.90;;;8.45;;
14358;SDS011;7263;49.418;11.064;2022-07-22T05:11:59;8.07;;;7.28;;
14358;SDS011;7263;49.418;11.064;2022-07-22T05:14:26;9.43;;;7.60;;
14358;SDS011;7263;49.418;11.064;2022-07-22T05:16:54;7.85;;;7.13;;
14358;SDS011;7263;49.418;11.064;2022-07-22T05:19:21;7.82;;;7.13;;
14358;SDS011;7263;49.418;11.064;2022-07-22T05:21:49;8.10;;;7.40;;
14358;SDS011;7263;49.418;11.064;2022-07-22T05:24:16;7.80;;;7.00;;
14358;SDS011;7263;49.418;11.064;2022-07-22T05:26:43;9.65;;;7.18;;
14358;SDS011;7263;49.418;11.064;2022-07-22T05:29:10;9.27;;;6.95;;
14358;SDS011;7263;49.418;11.064;2022-07-22T05:31:37;7.45;;;6.72;;
14358;SDS011;7263;49.418;11.064;2022-07-22T05:34:05;7.95;;;7.18;;
14358;SDS011;7263;49.418;11.064;2022-07-22T05:36:32;8.10;;;7.30;;
14358;SDS011;7263;49.418;11.064;2022-07-22T05:39:01;9.18;;;7.53;;
14358;SDS011;7263;49.418;11.064;2022-07-22T05:41:28;8.05;;;7.25;;
14358;SDS011;7263;49.418;11.064;2022-07-22T05:43:55;10.82;;;6.47;;
14358;SDS011;7263;49.418;11.064;2022-07-22T05:46:22;6.97;;;6.38;;
14358;SDS011;7263;49.418;11.064;2022-07-22T05:48:50;8.55;;;7.00;;
14358;SDS011;7263;49.418;11.064;2022-07-22T05:51:17;8.38;;;6.78;;
14358;SDS011;7263;49.418;11.064;2022-07-22T05:53:44;7.68;;;6.97;;
14358;SDS011;7263;49.418;11.064;2022-07-22T05:56:12;6.78;;;6.18;;
14358;SDS011;7263;49.418;11.064;2022-07-22T05:58:40;7.28;;;6.57;;
14358;SDS011;7263;49.418;11.064;2022-07-22T06:01:08;6.50;;;5.90;;
14358;SDS011;7263;49.418;11.064;2022-07-22T06:03:35;7.70;;;6.35;;
14358;SDS011;7263;49.418;11.064;2022-07-22T06:06:03;6.68;;;6.05;;
14358;SDS011;7263;49.418;11.064;2022-07-22T06:08:33;6.70;;;6.10;;
14358;SDS011;7263;49.418;11.064;2022-07-22T06:11:00;7.75;;;6.28;;
14358;SDS011;7263;49.418;11.064;2022-07-22T06:13:28;9.02;;;6.55;;
14358;SDS011;7263;49.418;11.064;2022-07-22T06:15:56;7.13;;;6.05;;
14358;SDS011;7263;49.418;11.064;2022-07-22T06:18:23;8.35;;;5.97;;
14358;SDS011;7263;49.418;11.064;2022-07-22T06:20:50;7.13;;;6.53;;
14358;SDS011;7263;49.418;11.064;2022-07-22T06:23:17;8.07;;;7.15;;
14358;SDS011;7263;49.418;11.064;2022-07-22T06:25:44;8.30;;;6.80;;
14358;SDS011;7263;49.418;11.064;2022-07-22T06:28:11;7.25;;;6.53;;
14358;SDS011;7263;49.418;11.064;2022-07-22T06:30:40;11.00;;;6.65;;
14358;SDS011;7263;49.418;11.064;2022-07-22T06:33:07;7.10;;;6.40;;
14358;SDS011;7263;49.418;11.064;2022-07-22T06:35:34;6.72;;;6.10;;
14358;SDS011;7263;49.418;11.064;2022-07-22T06:38:02;6.82;;;6.18;;
14358;SDS011;7263;49.418;11.064;2022-07-22T06:40:29;6.63;;;6.03;;
14358;SDS011;7263;49.418;11.064;2022-07-22T06:42:56;6.47;;;5.82;;
14358;SDS011;7263;49.418;11.064;2022-07-22T06:45:23;6.93;;;5.55;;
14358;SDS011;7263;49.418;11.064;2022-07-22T06:47:51;7.53;;;6.28;;
14358;SDS011;7263;49.418;11.064;2022-07-22T06:50:18;6.95;;;6.15;;
14358;SDS011;7263;49.418;11.064;2022-07-22T06:52:45;6.80;;;5.65;;
14358;SDS011;7263;49.418;11.064;2022-07-22T06:55:14;6.93;;;6.20;;
14358;SDS011;7263;49.418;11.064;2022-07-22T06:57:41;8.07;;;6.25;;
14358;SDS011;7263;49.418;11.064;2022-07-22T07:00:08;6.68;;;6.05;;
14358;SDS011;7263;49.418;11.064;2022-07-22T07:02:36;7.20;;;6.50;;
14358;SDS011;7263;49.418;11.064;2022-07-22T07:05:05;7.00;;;6.30;;
14358;SDS011;7263;49.418;11.064;2022-07-22T07:07:32;9.55;;;6.18;;
14358;SDS011;7263;49.418;11.064;2022-07-22T07:09:59;6.65;;;5.88;;
14358;SDS011;7263;49.418;11.064;2022-07-22T07:12:26;7.60;;;6.88;;
14358;SDS011;7263;49.418;11.064;2022-07-22T07:14:53;7.28;;;5.90;;
14358;SDS011;7263;49.418;11.064;2022-07-22T07:17:20;6.72;;;6.22;;
14358;SDS011;7263;49.418;11.064;2022-07-22T07:19:49;8.02;;;6.10;;
14358;SDS011;7263;49.418;11.064;2022-07-22T07:22:17;7.25;;;5.78;;
14358;SDS011;7263;49.418;11.064;2022-07-22T07:24:44;6.88;;;5.47;;
14358;SDS011;7263;49.418;11.064;2022-07-22T07:27:11;8.48;;;6.95;;
14358;SDS011;7263;49.418;11.064;2022-07-22T07:29:38;8.02;;;6.38;;
14358;SDS011;7263;49.418;11.064;2022-07-22T07:32:06;8.02;;;6.70;;
14358;SDS011;7263;49.418;11.064;2022-07-22T07:34:32;7.70;;;6.95;;
14358;SDS011;7263;49.418;11.064;2022-07-22T07:37:00;7.00;;;6.25;;
14358;SDS011;7263;49.418;11.064;2022-07-22T07:39:28;7.78;;;6.78;;
14358;SDS011;7263;49.418;11.064;2022-07-22T07:41:55;7.18;;;6.35;;
14358;SDS011;7263;49.418;11.064;2022-07-22T07:44:22;7.60;;;6.90;;
14358;SDS011;7263;49.418;11.064;2022-07-22T07:46:49;7.60;;;6.68;;
14358;SDS011;7263;49.418;11.064;2022-07-22T07:49:16;7.15;;;6.15;;
14358;SDS011;7263;49.418;11.064;2022-07-22T07:51:43;7.18;;;6.57;;
14358;SDS011;7263;49.418;11.064;2022-07-22T07:54:11;8.00;;;6.10;;
14358;SDS011;7263;49.418;11.064;2022-07-22T07:56:39;6.55;;;5.93;;
14358;SDS011;7263;49.418;11.064;2022-07-22T07:59:06;6.93;;;5.80;;
14358;SDS011;7263;49.418;11.064;2022-07-22T08:01:33;6.25;;;5.65;;
14358;SDS011;7263;49.418;11.064;2022-07-22T08:04:00;6.65;;;6.00;;
14358;SDS011;7263;49.418;11.064;2022-07-22T08:06:27;8.43;;;6.22;;
14358;SDS011;7263;49.418;11.064;2022-07-22T08:08:54;7.68;;;6.97;;
14358;SDS011;7263;49.418;11.064;2022-07-22T08:11:21;8.60;;;6.97;;
14358;SDS011;7263;49.418;11.064;2022-07-22T08:13:50;6.63;;;5.88;;
14358;SDS011;7263;49.418;11.064;2022-07-22T08:16:17;7.45;;;5.97;;
14358;SDS011;7263;49.418;11.064;2022-07-22T08:18:44;9.32;;;6.38;;
14358;SDS011;7263;49.418;11.064;2022-07-22T08:21:11;8.20;;;7.10;;
14358;SDS011;7263;49.418;11.064;2022-07-22T08:23:38;6.05;;;5.50;;
14358;SDS011;7263;49.418;11.064;2022-07-22T08:26:05;7.18;;;5.95;;
14358;SDS011;7263;49.418;11.064;2022-07-22T08:28:32;6.43;;;5.30;;
14358;SDS011;7263;49.418;11.064;2022-07-22T08:31:01;7.10;;;6.40;;
14358;SDS011;7263;49.418;11.064;2022-07-22T08:33:28;5.97;;;5.35;;
14358;SDS011;7263;49.418;11.064;2022-07-22T08:35:55;6.50;;;5.70;;
14358;SDS011;7263;49.418;11.064;2022-07-22T08:38:23;6.43;;;5.80;;
14358;SDS011;7263;49.418;11.064;2022-07-22T08:40:49;6.32;;;5.70;;
14358;SDS011;7263;49.418;11.064;2022-07-22T08:43:20;8.80;;;7.13;;
14358;SDS011;7263;49.418;11.064;2022-07-22T08:45:48;9.27;;;6.70;;
14358;SDS011;7263;49.418;11.064;2022-07-22T08:48:16;7.82;;;5.93;;
14358;SDS011;7263;49.418;11.064;2022-07-22T08:50:43;6.70;;;6.00;;
14358;SDS011;7263;49.418;11.064;2022-07-22T08:53:10;6.43;;;5.90;;
14358;SDS011;7263;49.418;11.064;2022-07-22T08:55:42;5.85;;;5.35;;
14358;SDS011;7263;49.418;11.064;2022-07-22T08:58:09;6.50;;;5.78;;
14358;SDS011;7263;49.418;11.064;2022-07-22T09:00:36;6.88;;;5.50;;
14358;SDS011;7263;49.418;11.064;2022-07-22T09:03:17;6.57;;;5.40;;
14358;SDS011;7263;49.418;11.064;2022-07-22T09:05:45;6.78;;;6.03;;
14358;SDS011;7263;49.418;11.064;2022-07-22T09:08:13;7.50;;;6.47;;
14358;SDS011;7263;49.418;11.064;2022-07-22T09:10:40;7.85;;;5.80;;
14358;SDS011;7263;49.418;11.064;2022-07-22T09:13:07;6.18;;;5.07;;
14358;SDS011;7263;49.418;11.064;2022-07-22T09:15:36;6.45;;;5.90;;
14358;SDS011;7263;49.418;11.064;2022-07-22T09:18:06;6.50;;;5.80;;
14358;SDS011;7263;49.418;11.064;2022-07-22T09:20:35;6.03;;;5.53;;
14358;SDS011;7263;49.418;11.064;2022-07-22T09:23:08;5.47;;;5.07;;
14358;SDS011;7263;49.418;11.064;2022-07-22T09:25:37;5.35;;;4.95;;
14358;SDS011;7263;49.418;11.064;2022-07-22T09:28:14;6.30;;;5.70;;
14358;SDS011;7263;49.418;11.064;2022-07-22T09:30:46;5.75;;;5.25;;
14358;SDS011;7263;49.418;11.064;2022-07-22T09:33:15;5.93;;;4.70;;
14358;SDS011;7263;49.418;11.064;2022-07-22T09:35:44;5.70;;;5.28;;
14358;SDS011;7263;49.418;11.064;2022-07-22T09:38:12;5.30;;;4.90;;
14358;SDS011;7263;49.418;11.064;2022-07-22T09:40:40;6.55;;;4.82;;
14358;SDS011;7263;49.418;11.064;2022-07-22T09:43:09;5.20;;;4.70;;
14358;SDS011;7263;49.418;11.064;2022-07-22T09:45:44;5.45;;;4.90;;
14358;SDS011;7263;49.418;11.064;2022-07-22T09:48:11;5.40;;;4.97;;
14358;SDS011;7263;49.418;11.064;2022-07-22T09:50:39;6.43;;;5.70;;
14358;SDS011;7263;49.418;11.064;2022-07-22T09:53:07;4.90;;;4.50;;
14358;SDS011;7263;49.418;11.064;2022-07-22T09:55:35;5.55;;;4.85;;
14358;SDS011;7263;49.418;11.064;2022-07-22T09:58:04;4.90;;;4.50;;
14358;SDS011;7263;49.418;11.064;2022-07-22T10:00:33;5.68;;;4.65;;
14358;SDS011;7263;49.418;11.064;2022-07-22T10:03:01;5.43;;;4.88;;
14358;SDS011;7263;49.418;11.064;2022-07-22T10:05:30;6.07;;;5.35;;
14358;SDS011;7263;49.418;11.064;2022-07-22T10:07:57;6.00;;;5.40;;
14358;SDS011;7263;49.418;11.064;2022-07-22T10:10:28;6.28;;;4.95;;
14358;SDS011;7263;49.418;11.064;2022-07-22T10:12:56;7.45;;;4.95;;
14358;SDS011;7263;49.418;11.064;2022-07-22T10:15:24;5.40;;;5.00;;
14358;SDS011;7263;49.418;11.064;2022-07-22T10:17:52;5.95;;;4.80;;
14358;SDS011;7263;49.418;11.064;2022-07-22T10:20:20;5.40;;;4.90;;
14358;SDS011;7263;49.418;11.064;2022-07-22T10:22:52;5.72;;;5.22;;
14358;SDS011;7263;49.418;11.064;2022-07-22T10:25:21;5.65;;;4.97;;
14358;SDS011;7263;49.418;11.064;2022-07-22T10:27:51;4.80;;;4.40;;
14358;SDS011;7263;49.418;11.064;2022-07-22T10:30:19;5.25;;;4.75;;
14358;SDS011;7263;49.418;11.064;2022-07-22T10:33:00;4.70;;;4.30;;
14358;SDS011;7263;49.418;11.064;2022-07-22T10:35:33;5.40;;;4.90;;
14358;SDS011;7263;49.418;11.064;2022-07-22T10:38:04;5.05;;;4.30;;
14358;SDS011;7263;49.418;11.064;2022-07-22T10:40:45;5.22;;;4.82;;
14358;SDS011;7263;49.418;11.064;2022-07-22T10:43:15;5.18;;;4.75;;
14358;SDS011;7263;49.418;11.064;2022-07-22T10:45:47;6.90;;;4.78;;
14358;SDS011;7263;49.418;11.064;2022-07-22T10:48:16;5.47;;;5.03;;
14358;SDS011;7263;49.418;11.064;2022-07-22T10:50:48;4.90;;;4.50;;
14358;SDS011;7263;49.418;11.064;2022-07-22T10:53:41;5.47;;;4.97;;
14358;SDS011;7263;49.418;11.064;2022-07-22T10:56:17;5.60;;;5.07;;
14358;SDS011;7263;49.418;11.064;2022-07-22T10:58:58;5.65;;;5.15;;
14358;SDS011;7263;49.418;11.064;2022-07-22T11:01:33;5.25;;;4.85;;
14358;SDS011;7263;49.418;11.064;2022-07-22T11:04:07;5.15;;;4.63;;
14358;SDS011;7263;49.418;11.064;2022-07-22T11:06:36;5.43;;;4.93;;
14358;SDS011;7263;49.418;11.064;2022-07-22T11:09:04;5.25;;;4.75;;
14358;SDS011;7263;49.418;11.064;2022-07-22T11:11:37;5.28;;;4.88;;
14358;SDS011;7263;49.418;11.064;2022-07-22T11:16:57;4.97;;;4.57;;
14358;SDS011;7263;49.418;11.064;2022-07-22T11:19:25;5.00;;;4.60;;
14358;SDS011;7263;49.418;11.064;2022-07-22T11:21:53;6.13;;;5.13;;
14358;SDS011;7263;49.418;11.064;2022-07-22T11:24:22;4.60;;;4.25;;
14358;SDS011;7263;49.418;11.064;2022-07-22T11:26:50;5.13;;;4.72;;
14358;SDS011;7263;49.418;11.064;2022-07-22T11:29:18;5.13;;;4.47;;
14358;SDS011;7263;49.418;11.064;2022-07-22T11:31:52;5.13;;;4.63;;
14358;SDS011;7263;49.418;11.064;2022-07-22T11:34:20;5.15;;;4.72;;
14358;SDS011;7263;49.418;11.064;2022-07-22T11:36:48;5.30;;;4.80;;
14358;SDS011;7263;49.418;11.064;2022-07-22T11:39:18;5.72;;;5.03;;
14358;SDS011;7263;49.418;11.064;2022-07-22T11:41:46;5.55;;;4.50;;
14358;SDS011;7263;49.418;11.064;2022-07-22T11:44:16;4.93;;;4.53;;
14358;SDS011;7263;49.418;11.064;2022-07-22T11:46:44;5.18;;;4.78;;
14358;SDS011;7263;49.418;11.064;2022-07-22T11:49:14;5.15;;;4.43;;
14358;SDS011;7263;49.418;11.064;2022-07-22T11:51:43;5.50;;;4.40;;
14358;SDS011;7263;49.418;11.064;2022-07-22T11:54:11;5.03;;;4.63;;
14358;SDS011;7263;49.418;11.064;2022-07-22T11:56:38;5.30;;;4.50;;
14358;SDS011;7263;49.418;11.064;2022-07-22T11:59:06;4.90;;;4.40;;
14358;SDS011;7263;49.418;11.064;2022-07-22T12:01:35;5.43;;;5.03;;
14358;SDS011;7263;49.418;11.064;2022-07-22T12:04:04;4.95;;;4.45;;
14358;SDS011;7263;49.418;11.064;2022-07-22T12:06:33;4.57;;;4.28;;
14358;SDS011;7263;49.418;11.064;2022-07-22T12:09:04;4.53;;;4.22;;
14358;SDS011;7263;49.418;11.064;2022-07-22T12:11:34;5.97;;;4.38;;
14358;SDS011;7263;49.418;11.064;2022-07-22T12:14:06;4.47;;;4.13;;
14358;SDS011;7263;49.418;11.064;2022-07-22T12:16:34;4.82;;;4.32;;
14358;SDS011;7263;49.418;11.064;2022-07-22T12:19:02;4.47;;;4.15;;
14358;SDS011;7263;49.418;11.064;2022-07-22T12:21:31;4.75;;;4.32;;
14358;SDS011;7263;49.418;11.064;2022-07-22T12:24:02;4.85;;;4.32;;
14358;SDS011;7263;49.418;11.064;2022-07-22T12:26:37;4.80;;;4.40;;
14358;SDS011;7263;49.418;11.064;2022-07-22T12:29:16;4.53;;;4.15;;
14358;SDS011;7263;49.418;11.064;2022-07-22T12:31:48;5.20;;;4.68;;
14358;SDS011;7263;49.418;11.064;2022-07-22T12:34:16;4.82;;;4.43;;
14358;SDS011;7263;49.418;11.064;2022-07-22T12:36:45;4.82;;;4.43;;
14358;SDS011;7263;49.418;11.064;2022-07-22T12:39:14;5.22;;;4.72;;
14358;SDS011;7263;49.418;11.064;2022-07-22T12:41:46;5.38;;;4.97;;
14358;SDS011;7263;49.418;11.064;2022-07-22T12:44:15;5.30;;;4.90;;
14358;SDS011;7263;49.418;11.064;2022-07-22T12:46:47;5.30;;;4.80;;
14358;SDS011;7263;49.418;11.064;2022-07-22T12:49:15;5.00;;;4.55;;
14358;SDS011;7263;49.418;11.064;2022-07-22T12:54:37;5.57;;;5.07;;
14358;SDS011;7263;49.418;11.064;2022-07-22T12:57:04;5.13;;;4.72;;
14358;SDS011;7263;49.418;11.064;2022-07-22T12:59:32;5.10;;;4.53;;
14358;SDS011;7263;49.418;11.064;2022-07-22T13:01:59;5.30;;;4.90;;
14358;SDS011;7263;49.418;11.064;2022-07-22T13:04:26;6.68;;;4.95;;
14358;SDS011;7263;49.418;11.064;2022-07-22T13:06:55;5.60;;;5.00;;
14358;SDS011;7263;49.418;11.064;2022-07-22T13:09:24;5.38;;;4.88;;
14358;SDS011;7263;49.418;11.064;2022-07-22T13:11:51;4.80;;;4.40;;
14358;SDS011;7263;49.418;11.064;2022-07-22T13:14:18;5.35;;;4.68;;
14358;SDS011;7263;49.418;11.064;2022-07-22T13:16:45;5.38;;;4.97;;
14358;SDS011;7263;49.418;11.064;2022-07-22T13:19:12;5.40;;;4.65;;
14358;SDS011;7263;49.418;11.064;2022-07-22T13:21:39;5.60;;;5.03;;
14358;SDS011;7263;49.418;11.064;2022-07-22T13:24:07;8.52;;;5.50;;
14358;SDS011;7263;49.418;11.064;2022-07-22T13:26:36;5.25;;;4.72;;
14358;SDS011;7263;49.418;11.064;2022-07-22T13:29:03;5.78;;;4.45;;
14358;SDS011;7263;49.418;11.064;2022-07-22T13:31:30;5.10;;;4.60;;
14358;SDS011;7263;49.418;11.064;2022-07-22T13:33:57;4.68;;;4.28;;
14358;SDS011;7263;49.418;11.064;2022-07-22T13:36:25;4.97;;;4.47;;
14358;SDS011;7263;49.418;11.064;2022-07-22T13:38:53;6.72;;;4.55;;
14358;SDS011;7263;49.418;11.064;2022-07-22T13:41:21;5.53;;;4.38;;
14358;SDS011;7263;49.418;11.064;2022-07-22T13:43:49;5.18;;;4.68;;
14358;SDS011;7263;49.418;11.064;2022-07-22T13:46:16;7.28;;;4.70;;
14358;SDS011;7263;49.418;11.064;2022-07-22T13:48:44;4.43;;;4.13;;
14358;SDS011;7263;49.418;11.064;2022-07-22T13:51:11;4.93;;;4.47;;
14358;SDS011;7263;49.418;11.064;2022-07-22T13:53:39;5.38;;;4.47;;
14358;SDS011;7263;49.418;11.064;2022-07-22T13:56:07;4.80;;;4.30;;
14358;SDS011;7263;49.418;11.064;2022-07-22T13:58:36;5.72;;;4.43;;
14358;SDS011;7263;49.418;11.064;2022-07-22T14:01:07;5.00;;;4.50;;
14358;SDS011;7263;49.418;11.064;2022-07-22T14:03:35;6.28;;;4.10;;
14358;SDS011;7263;49.418;11.064;2022-07-22T14:06:01;4.68;;;4.28;;
14358;SDS011;7263;49.418;11.064;2022-07-22T14:08:29;4.63;;;4.28;;
14358;SDS011;7263;49.418;11.064;2022-07-22T14:10:56;5.97;;;4.63;;
14358;SDS011;7263;49.418;11.064;2022-07-22T14:13:23;4.57;;;4.18;;
14358;SDS011;7263;49.418;11.064;2022-07-22T14:15:50;4.93;;;4.30;;
14358;SDS011;7263;49.418;11.064;2022-07-22T14:18:19;6.00;;;4.60;;
14358;SDS011;7263;49.418;11.064;2022-07-22T14:20:46;5.00;;;4.53;;
14358;SDS011;7263;49.418;11.064;2022-07-22T14:23:13;5.45;;;4.93;;
14358;SDS011;7263;49.418;11.064;2022-07-22T14:25:41;5.03;;;4.30;;
14358;SDS011;7263;49.418;11.064;2022-07-22T14:28:09;5.00;;;4.50;;
14358;SDS011;7263;49.418;11.064;2022-07-22T14:30:36;5.22;;;4.07;;
14358;SDS011;7263;49.418;11.064;2022-07-22T14:33:03;5.20;;;4.70;;
14358;SDS011;7263;49.418;11.064;2022-07-22T14:35:31;5.70;;;4.70;;
14358;SDS011;7263;49.418;11.064;2022-07-22T14:37:59;5.25;;;4.75;;
14358;SDS011;7263;49.418;11.064;2022-07-22T14:40:27;4.93;;;4.63;;
14358;SDS011;7263;49.418;11.064;2022-07-22T14:42:54;5.18;;;4.78;;
14358;SDS011;7263;49.418;11.064;2022-07-22T14:45:21;4.70;;;4.28;;
14358;SDS011;7263;49.418;11.064;2022-07-22T14:47:48;5.45;;;4.93;;
14358;SDS011;7263;49.418;11.064;2022-07-22T14:50:15;5.90;;;4.32;;
14358;SDS011;7263;49.418;11.064;2022-07-22T14:52:43;4.68;;;4.38;;
14358;SDS011;7263;49.418;11.064;2022-07-22T14:55:10;4.65;;;4.25;;
14358;SDS011;7263;49.418;11.064;2022-07-22T14:57:37;4.80;;;4.40;;
14358;SDS011;7263;49.418;11.064;2022-07-22T15:00:05;4.38;;;4.07;;